sensor_id;sensor_type;location;lat;lon;timestamp;P1;durP1;ratioP1;P2;durP2;ratioP2
1471;SDS011;963;42.644;23.336;2023-02-10T00:01:20;34.57;;;17.60;;
1471;SDS011;963;42.644;23.336;2023-02-10T00:03:47;29.88;;;16.75;;
1471;SDS011;963;42.644;23.336;2023-02-10T00:06:14;25.67;;;16.20;;
1471;SDS011;963;42.644;23.336;2023-02-10T00:08:40;31.08;;;16.70;;
1471;SDS011;963;42.644;23.336;2023-02-10T00:11:07;26.00;;;15.30;;
1471;SDS011;963;42.644;23.336;2023-02-10T00:13:37;32.13;;;14.55;;
1471;SDS011;963;42.644;23.336;2023-02-10T00:16:04;31.48;;;15.02;;
1471;SDS011;963;42.644;23.336;2023-02-10T00:18:31;31.58;;;17.30;;
1471;SDS011;963;42.644;23.336;2023-02-10T00:21:04;27.48;;;14.50;;
1471;SDS011;963;42.644;23.336;2023-02-10T00:23:40;21.42;;;13.00;;
1471;SDS011;963;42.644;23.336;2023-02-10T00:26:08;27.13;;;13.10;;
1471;SDS011;963;42.644;23.336;2023-02-10T00:28:36;21.15;;;12.32;;
1471;SDS011;963;42.644;23.336;2023-02-10T00:31:08;22.37;;;13.13;;
1471;SDS011;963;42.644;23.336;2023-02-10T00:33:35;21.63;;;12.50;;
1471;SDS011;963;42.644;23.336;2023-02-10T00:36:04;26.50;;;13.03;;
1471;SDS011;963;42.644;23.336;2023-02-10T00:38:30;23.35;;;12.20;;
1471;SDS011;963;42.644;23.336;2023-02-10T00:41:01;23.17;;;12.37;;
1471;SDS011;963;42.644;23.336;2023-02-10T00:43:30;25.15;;;12.88;;
1471;SDS011;963;42.644;23.336;2023-02-10T00:45:55;21.10;;;12.20;;
1471;SDS011;963;42.644;23.336;2023-02-10T00:48:21;19.40;;;12.10;;
1471;SDS011;963;42.644;23.336;2023-02-10T00:50:46;20.40;;;12.27;;
1471;SDS011;963;42.644;23.336;2023-02-10T00:53:11;23.20;;;12.43;;
1471;SDS011;963;42.644;23.336;2023-02-10T00:55:37;24.57;;;11.00;;
1471;SDS011;963;42.644;23.336;2023-02-10T00:58:02;26.87;;;12.50;;
1471;SDS011;963;42.644;23.336;2023-02-10T01:00:28;18.27;;;11.30;;
1471;SDS011;963;42.644;23.336;2023-02-10T01:02:53;25.43;;;11.67;;
1471;SDS011;963;42.644;23.336;2023-02-10T01:05:18;21.23;;;10.97;;
1471;SDS011;963;42.644;23.336;2023-02-10T01:07:44;20.27;;;11.17;;
1471;SDS011;963;42.644;23.336;2023-02-10T01:10:09;19.37;;;11.67;;
1471;SDS011;963;42.644;23.336;2023-02-10T01:12:35;22.07;;;11.03;;
1471;SDS011;963;42.644;23.336;2023-02-10T01:15:00;19.37;;;11.87;;
1471;SDS011;963;42.644;23.336;2023-02-10T01:17:25;20.33;;;11.67;;
1471;SDS011;963;42.644;23.336;2023-02-10T01:19:51;19.70;;;12.43;;
1471;SDS011;963;42.644;23.336;2023-02-10T01:22:16;21.50;;;11.80;;
1471;SDS011;963;42.644;23.336;2023-02-10T01:24:42;19.13;;;10.97;;
1471;SDS011;963;42.644;23.336;2023-02-10T01:27:07;16.90;;;10.30;;
1471;SDS011;963;42.644;23.336;2023-02-10T01:29:33;23.40;;;11.10;;
1471;SDS011;963;42.644;23.336;2023-02-10T01:31:58;17.37;;;11.07;;
1471;SDS011;963;42.644;23.336;2023-02-10T01:34:24;19.07;;;10.10;;
1471;SDS011;963;42.644;23.336;2023-02-10T01:36:49;17.97;;;12.03;;
1471;SDS011;963;42.644;23.336;2023-02-10T01:39:15;18.10;;;10.67;;
1471;SDS011;963;42.644;23.336;2023-02-10T01:41:40;24.05;;;11.35;;
1471;SDS011;963;42.644;23.336;2023-02-10T01:46:43;17.67;;;10.18;;
1471;SDS011;963;42.644;23.336;2023-02-10T01:49:09;16.00;;;10.40;;
1471;SDS011;963;42.644;23.336;2023-02-10T01:52:01;17.35;;;10.13;;
1471;SDS011;963;42.644;23.336;2023-02-10T01:54:28;15.23;;;9.55;;
1471;SDS011;963;42.644;23.336;2023-02-10T01:56:57;16.83;;;10.82;;
1471;SDS011;963;42.644;23.336;2023-02-10T01:59:24;16.02;;;9.48;;
1471;SDS011;963;42.644;23.336;2023-02-10T02:01:52;19.38;;;10.93;;
1471;SDS011;963;42.644;23.336;2023-02-10T02:04:20;16.45;;;10.30;;
1471;SDS011;963;42.644;23.336;2023-02-10T02:06:45;19.90;;;10.10;;
1471;SDS011;963;42.644;23.336;2023-02-10T02:09:11;18.80;;;9.80;;
1471;SDS011;963;42.644;23.336;2023-02-10T02:16:58;14.63;;;9.55;;
1471;SDS011;963;42.644;23.336;2023-02-10T02:34:06;26.42;;;15.23;;
1471;SDS011;963;42.644;23.336;2023-02-10T02:36:40;27.67;;;15.27;;
1471;SDS011;963;42.644;23.336;2023-02-10T02:39:11;30.63;;;16.00;;
1471;SDS011;963;42.644;23.336;2023-02-10T02:41:37;33.83;;;18.20;;
1471;SDS011;963;42.644;23.336;2023-02-10T02:44:02;34.10;;;17.90;;
1471;SDS011;963;42.644;23.336;2023-02-10T02:49:09;34.22;;;18.58;;
1471;SDS011;963;42.644;23.336;2023-02-10T02:54:27;40.28;;;19.58;;
1471;SDS011;963;42.644;23.336;2023-02-10T03:00:05;31.95;;;18.70;;
1471;SDS011;963;42.644;23.336;2023-02-10T03:02:33;35.53;;;20.13;;
1471;SDS011;963;42.644;23.336;2023-02-10T03:05:02;33.97;;;18.40;;
1471;SDS011;963;42.644;23.336;2023-02-10T03:07:28;34.60;;;18.58;;
1471;SDS011;963;42.644;23.336;2023-02-10T03:09:54;36.73;;;19.10;;
1471;SDS011;963;42.644;23.336;2023-02-10T03:12:19;33.30;;;17.83;;
1471;SDS011;963;42.644;23.336;2023-02-10T03:14:45;29.30;;;18.37;;
1471;SDS011;963;42.644;23.336;2023-02-10T03:17:10;27.40;;;17.23;;
1471;SDS011;963;42.644;23.336;2023-02-10T03:19:35;29.40;;;20.20;;
1471;SDS011;963;42.644;23.336;2023-02-10T03:22:01;38.83;;;18.60;;
1471;SDS011;963;42.644;23.336;2023-02-10T03:24:27;31.77;;;18.85;;
1471;SDS011;963;42.644;23.336;2023-02-10T03:26:52;36.40;;;18.03;;
1471;SDS011;963;42.644;23.336;2023-02-10T03:29:18;32.63;;;19.00;;
1471;SDS011;963;42.644;23.336;2023-02-10T03:31:43;34.03;;;19.03;;
1471;SDS011;963;42.644;23.336;2023-02-10T03:34:09;36.10;;;20.57;;
1471;SDS011;963;42.644;23.336;2023-02-10T03:36:34;35.03;;;19.70;;
1471;SDS011;963;42.644;23.336;2023-02-10T03:39:02;32.77;;;18.90;;
1471;SDS011;963;42.644;23.336;2023-02-10T03:41:28;34.85;;;19.00;;
1471;SDS011;963;42.644;23.336;2023-02-10T03:43:54;37.70;;;20.90;;
1471;SDS011;963;42.644;23.336;2023-02-10T03:46:19;39.77;;;18.80;;
1471;SDS011;963;42.644;23.336;2023-02-10T03:48:46;37.55;;;17.67;;
1471;SDS011;963;42.644;23.336;2023-02-10T03:51:11;32.80;;;19.03;;
1471;SDS011;963;42.644;23.336;2023-02-10T03:53:37;26.83;;;16.60;;
1471;SDS011;963;42.644;23.336;2023-02-10T03:56:02;36.40;;;17.73;;
1471;SDS011;963;42.644;23.336;2023-02-10T03:58:28;30.10;;;17.10;;
1471;SDS011;963;42.644;23.336;2023-02-10T04:00:53;40.03;;;19.17;;
1471;SDS011;963;42.644;23.336;2023-02-10T04:03:19;36.13;;;17.60;;
1471;SDS011;963;42.644;23.336;2023-02-10T04:05:45;35.40;;;18.53;;
1471;SDS011;963;42.644;23.336;2023-02-10T04:08:10;36.73;;;18.70;;
1471;SDS011;963;42.644;23.336;2023-02-10T04:10:36;34.10;;;18.30;;
1471;SDS011;963;42.644;23.336;2023-02-10T04:13:02;35.63;;;17.55;;
1471;SDS011;963;42.644;23.336;2023-02-10T04:15:28;37.63;;;19.30;;
1471;SDS011;963;42.644;23.336;2023-02-10T04:17:53;31.60;;;19.70;;
1471;SDS011;963;42.644;23.336;2023-02-10T04:20:21;32.92;;;18.05;;
1471;SDS011;963;42.644;23.336;2023-02-10T04:22:47;35.20;;;18.55;;
1471;SDS011;963;42.644;23.336;2023-02-10T04:25:13;38.00;;;19.23;;
1471;SDS011;963;42.644;23.336;2023-02-10T04:27:38;33.00;;;19.10;;
1471;SDS011;963;42.644;23.336;2023-02-10T04:30:03;29.97;;;17.93;;
1471;SDS011;963;42.644;23.336;2023-02-10T04:32:29;29.95;;;17.95;;
1471;SDS011;963;42.644;23.336;2023-02-10T04:34:55;38.00;;;19.00;;
1471;SDS011;963;42.644;23.336;2023-02-10T04:37:20;32.30;;;18.10;;
1471;SDS011;963;42.644;23.336;2023-02-10T04:39:46;32.70;;;17.47;;
1471;SDS011;963;42.644;23.336;2023-02-10T04:42:11;27.97;;;17.77;;
1471;SDS011;963;42.644;23.336;2023-02-10T04:44:38;31.75;;;17.70;;
1471;SDS011;963;42.644;23.336;2023-02-10T04:47:03;35.50;;;19.00;;
1471;SDS011;963;42.644;23.336;2023-02-10T04:49:28;34.40;;;18.17;;
1471;SDS011;963;42.644;23.336;2023-02-10T04:51:54;30.37;;;18.30;;
1471;SDS011;963;42.644;23.336;2023-02-10T04:54:19;32.60;;;20.13;;
1471;SDS011;963;42.644;23.336;2023-02-10T04:56:46;37.40;;;19.65;;
1471;SDS011;963;42.644;23.336;2023-02-10T04:59:12;31.80;;;17.05;;
1471;SDS011;963;42.644;23.336;2023-02-10T05:01:38;39.10;;;18.00;;
1471;SDS011;963;42.644;23.336;2023-02-10T05:04:03;35.90;;;20.40;;
1471;SDS011;963;42.644;23.336;2023-02-10T05:06:30;31.77;;;18.60;;
1471;SDS011;963;42.644;23.336;2023-02-10T05:08:55;36.57;;;20.17;;
1471;SDS011;963;42.644;23.336;2023-02-10T05:11:21;38.77;;;20.60;;
1471;SDS011;963;42.644;23.336;2023-02-10T05:13:47;39.47;;;21.67;;
1471;SDS011;963;42.644;23.336;2023-02-10T05:16:12;35.43;;;18.70;;
1471;SDS011;963;42.644;23.336;2023-02-10T05:18:41;37.90;;;20.65;;
1471;SDS011;963;42.644;23.336;2023-02-10T05:21:08;41.57;;;20.83;;
1471;SDS011;963;42.644;23.336;2023-02-10T05:23:34;37.63;;;21.65;;
1471;SDS011;963;42.644;23.336;2023-02-10T05:26:00;33.43;;;20.07;;
1471;SDS011;963;42.644;23.336;2023-02-10T05:28:26;37.93;;;19.43;;
1471;SDS011;963;42.644;23.336;2023-02-10T05:30:52;35.50;;;20.35;;
1471;SDS011;963;42.644;23.336;2023-02-10T05:33:18;32.83;;;18.45;;
1471;SDS011;963;42.644;23.336;2023-02-10T05:35:44;37.07;;;20.47;;
1471;SDS011;963;42.644;23.336;2023-02-10T05:38:09;36.00;;;20.67;;
1471;SDS011;963;42.644;23.336;2023-02-10T05:40:35;41.17;;;20.60;;
1471;SDS011;963;42.644;23.336;2023-02-10T05:43:01;33.00;;;20.30;;
1471;SDS011;963;42.644;23.336;2023-02-10T05:45:26;40.13;;;20.10;;
1471;SDS011;963;42.644;23.336;2023-02-10T05:47:52;40.13;;;19.97;;
1471;SDS011;963;42.644;23.336;2023-02-10T05:50:17;41.23;;;20.47;;
1471;SDS011;963;42.644;23.336;2023-02-10T05:52:43;37.00;;;20.57;;
1471;SDS011;963;42.644;23.336;2023-02-10T05:55:09;34.23;;;20.07;;
1471;SDS011;963;42.644;23.336;2023-02-10T05:57:35;35.10;;;20.20;;
1471;SDS011;963;42.644;23.336;2023-02-10T06:00:00;42.97;;;20.80;;
1471;SDS011;963;42.644;23.336;2023-02-10T06:02:26;39.63;;;19.50;;
1471;SDS011;963;42.644;23.336;2023-02-10T06:04:51;33.23;;;19.33;;
1471;SDS011;963;42.644;23.336;2023-02-10T06:07:17;32.83;;;20.27;;
1471;SDS011;963;42.644;23.336;2023-02-10T06:09:43;36.00;;;18.40;;
1471;SDS011;963;42.644;23.336;2023-02-10T06:12:09;39.70;;;20.50;;
1471;SDS011;963;42.644;23.336;2023-02-10T06:14:35;38.03;;;21.87;;
1471;SDS011;963;42.644;23.336;2023-02-10T06:17:03;47.75;;;22.58;;
1471;SDS011;963;42.644;23.336;2023-02-10T06:19:33;38.00;;;23.08;;
1471;SDS011;963;42.644;23.336;2023-02-10T06:21:59;30.67;;;17.92;;
1471;SDS011;963;42.644;23.336;2023-02-10T06:24:25;30.07;;;20.07;;
1471;SDS011;963;42.644;23.336;2023-02-10T06:26:50;29.90;;;18.50;;
1471;SDS011;963;42.644;23.336;2023-02-10T06:29:16;30.73;;;18.97;;
1471;SDS011;963;42.644;23.336;2023-02-10T06:31:41;34.83;;;19.53;;
1471;SDS011;963;42.644;23.336;2023-02-10T06:34:07;42.17;;;20.10;;
1471;SDS011;963;42.644;23.336;2023-02-10T06:36:33;30.92;;;20.02;;
1471;SDS011;963;42.644;23.336;2023-02-10T06:38:58;35.77;;;20.03;;
1471;SDS011;963;42.644;23.336;2023-02-10T06:41:23;43.10;;;21.30;;
1471;SDS011;963;42.644;23.336;2023-02-10T06:43:49;45.67;;;24.77;;
1471;SDS011;963;42.644;23.336;2023-02-10T06:46:16;52.30;;;23.00;;
1471;SDS011;963;42.644;23.336;2023-02-10T06:48:41;43.17;;;22.97;;
1471;SDS011;963;42.644;23.336;2023-02-10T06:51:06;41.17;;;22.20;;
1471;SDS011;963;42.644;23.336;2023-02-10T06:53:32;40.13;;;20.63;;
1471;SDS011;963;42.644;23.336;2023-02-10T06:55:57;38.37;;;21.27;;
1471;SDS011;963;42.644;23.336;2023-02-10T06:58:23;34.03;;;20.47;;
1471;SDS011;963;42.644;23.336;2023-02-10T07:00:48;48.23;;;24.53;;
1471;SDS011;963;42.644;23.336;2023-02-10T07:03:14;35.73;;;22.53;;
1471;SDS011;963;42.644;23.336;2023-02-10T07:05:39;38.17;;;22.00;;
1471;SDS011;963;42.644;23.336;2023-02-10T07:08:05;32.73;;;19.73;;
1471;SDS011;963;42.644;23.336;2023-02-10T07:10:31;30.48;;;18.15;;
1471;SDS011;963;42.644;23.336;2023-02-10T07:12:57;36.40;;;19.93;;
1471;SDS011;963;42.644;23.336;2023-02-10T07:15:23;36.20;;;22.07;;
1471;SDS011;963;42.644;23.336;2023-02-10T07:17:49;31.75;;;19.75;;
1471;SDS011;963;42.644;23.336;2023-02-10T07:20:16;38.30;;;19.33;;
1471;SDS011;963;42.644;23.336;2023-02-10T07:22:43;30.60;;;19.17;;
1471;SDS011;963;42.644;23.336;2023-02-10T07:25:08;38.07;;;19.40;;
1471;SDS011;963;42.644;23.336;2023-02-10T07:27:34;31.90;;;19.80;;
1471;SDS011;963;42.644;23.336;2023-02-10T07:29:59;33.23;;;18.77;;
1471;SDS011;963;42.644;23.336;2023-02-10T07:32:24;34.13;;;19.67;;
1471;SDS011;963;42.644;23.336;2023-02-10T07:34:50;38.47;;;19.90;;
1471;SDS011;963;42.644;23.336;2023-02-10T07:37:16;41.70;;;22.58;;
1471;SDS011;963;42.644;23.336;2023-02-10T07:39:42;31.57;;;20.00;;
1471;SDS011;963;42.644;23.336;2023-02-10T07:42:07;34.10;;;20.43;;
1471;SDS011;963;42.644;23.336;2023-02-10T07:44:32;39.33;;;22.90;;
1471;SDS011;963;42.644;23.336;2023-02-10T07:46:58;30.97;;;20.03;;
1471;SDS011;963;42.644;23.336;2023-02-10T07:49:23;37.87;;;20.97;;
1471;SDS011;963;42.644;23.336;2023-02-10T07:51:49;30.77;;;19.57;;
1471;SDS011;963;42.644;23.336;2023-02-10T07:54:15;36.33;;;21.03;;
1471;SDS011;963;42.644;23.336;2023-02-10T07:56:40;42.90;;;22.67;;
1471;SDS011;963;42.644;23.336;2023-02-10T07:59:06;36.50;;;21.73;;
1471;SDS011;963;42.644;23.336;2023-02-10T08:01:31;40.87;;;22.00;;
1471;SDS011;963;42.644;23.336;2023-02-10T08:03:57;42.63;;;21.10;;
1471;SDS011;963;42.644;23.336;2023-02-10T08:06:24;31.67;;;20.30;;
1471;SDS011;963;42.644;23.336;2023-02-10T08:08:50;37.95;;;20.80;;
1471;SDS011;963;42.644;23.336;2023-02-10T08:11:16;35.20;;;21.50;;
1471;SDS011;963;42.644;23.336;2023-02-10T08:13:42;32.53;;;19.58;;
1471;SDS011;963;42.644;23.336;2023-02-10T08:16:07;33.50;;;19.57;;
1471;SDS011;963;42.644;23.336;2023-02-10T08:18:36;31.48;;;20.23;;
1471;SDS011;963;42.644;23.336;2023-02-10T08:21:05;29.35;;;18.42;;
1471;SDS011;963;42.644;23.336;2023-02-10T08:23:31;34.57;;;20.67;;
1471;SDS011;963;42.644;23.336;2023-02-10T08:25:57;39.90;;;21.48;;
1471;SDS011;963;42.644;23.336;2023-02-10T08:28:23;36.87;;;23.80;;
1471;SDS011;963;42.644;23.336;2023-02-10T08:30:48;39.70;;;22.63;;
1471;SDS011;963;42.644;23.336;2023-02-10T08:33:14;33.30;;;19.40;;
1471;SDS011;963;42.644;23.336;2023-02-10T08:35:39;39.40;;;20.53;;
1471;SDS011;963;42.644;23.336;2023-02-10T08:38:05;34.60;;;19.97;;
1471;SDS011;963;42.644;23.336;2023-02-10T08:40:32;40.50;;;22.05;;
1471;SDS011;963;42.644;23.336;2023-02-10T08:42:58;32.38;;;20.65;;
1471;SDS011;963;42.644;23.336;2023-02-10T08:45:23;40.10;;;20.70;;
1471;SDS011;963;42.644;23.336;2023-02-10T08:47:49;34.70;;;18.97;;
1471;SDS011;963;42.644;23.336;2023-02-10T08:50:14;31.40;;;19.47;;
1471;SDS011;963;42.644;23.336;2023-02-10T08:52:40;31.93;;;19.60;;
1471;SDS011;963;42.644;23.336;2023-02-10T08:55:05;37.93;;;18.93;;
1471;SDS011;963;42.644;23.336;2023-02-10T08:57:32;36.63;;;19.92;;
1471;SDS011;963;42.644;23.336;2023-02-10T08:59:58;33.60;;;20.27;;
1471;SDS011;963;42.644;23.336;2023-02-10T09:02:24;39.50;;;22.77;;
1471;SDS011;963;42.644;23.336;2023-02-10T09:04:50;33.13;;;20.03;;
1471;SDS011;963;42.644;23.336;2023-02-10T09:07:15;34.83;;;20.10;;
1471;SDS011;963;42.644;23.336;2023-02-10T09:09:42;39.63;;;20.97;;
1471;SDS011;963;42.644;23.336;2023-02-10T09:12:08;31.30;;;19.10;;
1471;SDS011;963;42.644;23.336;2023-02-10T09:14:37;32.92;;;20.98;;
1471;SDS011;963;42.644;23.336;2023-02-10T09:17:03;41.15;;;20.05;;
1471;SDS011;963;42.644;23.336;2023-02-10T09:19:29;33.88;;;19.88;;
1471;SDS011;963;42.644;23.336;2023-02-10T09:21:55;25.70;;;16.90;;
1471;SDS011;963;42.644;23.336;2023-02-10T09:24:21;26.73;;;18.53;;
1471;SDS011;963;42.644;23.336;2023-02-10T09:26:48;31.63;;;19.25;;
1471;SDS011;963;42.644;23.336;2023-02-10T09:29:13;29.73;;;18.53;;
1471;SDS011;963;42.644;23.336;2023-02-10T09:31:39;33.17;;;18.90;;
1471;SDS011;963;42.644;23.336;2023-02-10T09:34:04;30.73;;;18.73;;
1471;SDS011;963;42.644;23.336;2023-02-10T09:36:30;33.97;;;19.00;;
1471;SDS011;963;42.644;23.336;2023-02-10T09:38:56;28.83;;;19.10;;
1471;SDS011;963;42.644;23.336;2023-02-10T09:54:56;30.80;;;17.40;;
1471;SDS011;963;42.644;23.336;2023-02-10T09:57:37;35.97;;;20.33;;
1471;SDS011;963;42.644;23.336;2023-02-10T10:00:11;29.00;;;18.37;;
1471;SDS011;963;42.644;23.336;2023-02-10T10:02:49;32.40;;;17.80;;
1471;SDS011;963;42.644;23.336;2023-02-10T10:05:23;30.03;;;18.40;;
1471;SDS011;963;42.644;23.336;2023-02-10T10:07:50;26.10;;;16.70;;
1471;SDS011;963;42.644;23.336;2023-02-10T10:10:26;31.93;;;18.13;;
1471;SDS011;963;42.644;23.336;2023-02-10T10:12:57;25.80;;;15.37;;
1471;SDS011;963;42.644;23.336;2023-02-10T10:15:23;24.40;;;15.47;;
1471;SDS011;963;42.644;23.336;2023-02-10T10:20:28;25.50;;;15.90;;
1471;SDS011;963;42.644;23.336;2023-02-10T10:31:17;25.70;;;16.50;;
1471;SDS011;963;42.644;23.336;2023-02-10T10:36:18;26.93;;;17.40;;
1471;SDS011;963;42.644;23.336;2023-02-10T10:38:54;26.87;;;16.30;;
1471;SDS011;963;42.644;23.336;2023-02-10T10:41:29;25.27;;;16.43;;
1471;SDS011;963;42.644;23.336;2023-02-10T10:43:57;28.87;;;18.37;;
1471;SDS011;963;42.644;23.336;2023-02-10T10:48:52;40.17;;;20.83;;
1471;SDS011;963;42.644;23.336;2023-02-10T10:51:18;31.80;;;19.90;;
1471;SDS011;963;42.644;23.336;2023-02-10T10:53:48;28.50;;;17.97;;
1471;SDS011;963;42.644;23.336;2023-02-10T10:59:29;32.93;;;21.70;;
1471;SDS011;963;42.644;23.336;2023-02-10T11:02:13;40.47;;;22.50;;
1471;SDS011;963;42.644;23.336;2023-02-10T11:04:43;35.60;;;21.80;;
1471;SDS011;963;42.644;23.336;2023-02-10T11:07:11;34.27;;;22.83;;
1471;SDS011;963;42.644;23.336;2023-02-10T11:09:48;32.30;;;21.03;;
1471;SDS011;963;42.644;23.336;2023-02-10T11:12:36;32.70;;;20.70;;
1471;SDS011;963;42.644;23.336;2023-02-10T11:15:20;30.73;;;19.93;;
1471;SDS011;963;42.644;23.336;2023-02-10T11:17:48;37.90;;;20.47;;
1471;SDS011;963;42.644;23.336;2023-02-10T11:22:40;31.63;;;18.93;;
1471;SDS011;963;42.644;23.336;2023-02-10T11:27:49;29.70;;;20.10;;
1471;SDS011;963;42.644;23.336;2023-02-10T11:30:58;43.47;;;20.60;;
1471;SDS011;963;42.644;23.336;2023-02-10T11:33:17;33.37;;;21.03;;
1471;SDS011;963;42.644;23.336;2023-02-10T11:35:47;34.23;;;21.03;;
1471;SDS011;963;42.644;23.336;2023-02-10T11:38:22;39.20;;;21.83;;
1471;SDS011;963;42.644;23.336;2023-02-10T11:43:17;30.17;;;20.60;;
1471;SDS011;963;42.644;23.336;2023-02-10T11:45:54;34.27;;;20.30;;
1471;SDS011;963;42.644;23.336;2023-02-10T11:48:27;32.80;;;22.30;;
1471;SDS011;963;42.644;23.336;2023-02-10T11:51:26;35.57;;;23.20;;
1471;SDS011;963;42.644;23.336;2023-02-10T11:53:46;31.30;;;22.93;;
1471;SDS011;963;42.644;23.336;2023-02-10T12:04:58;31.27;;;21.33;;
1471;SDS011;963;42.644;23.336;2023-02-10T12:15:36;29.47;;;20.70;;
1471;SDS011;963;42.644;23.336;2023-02-10T12:21:05;37.87;;;25.40;;
1471;SDS011;963;42.644;23.336;2023-02-10T12:24:36;38.43;;;21.90;;
1471;SDS011;963;42.644;23.336;2023-02-10T12:42:52;33.33;;;22.10;;
1471;SDS011;963;42.644;23.336;2023-02-10T12:45:43;31.97;;;21.80;;
1471;SDS011;963;42.644;23.336;2023-02-10T12:53:26;29.67;;;20.37;;
1471;SDS011;963;42.644;23.336;2023-02-10T12:58:27;32.43;;;21.30;;
1471;SDS011;963;42.644;23.336;2023-02-10T13:01:06;28.33;;;20.13;;
1471;SDS011;963;42.644;23.336;2023-02-10T13:03:53;30.40;;;20.50;;
1471;SDS011;963;42.644;23.336;2023-02-10T13:11:51;28.73;;;19.63;;
1471;SDS011;963;42.644;23.336;2023-02-10T13:14:34;27.23;;;19.57;;
1471;SDS011;963;42.644;23.336;2023-02-10T13:17:03;33.50;;;20.80;;
1471;SDS011;963;42.644;23.336;2023-02-10T13:22:18;30.03;;;20.30;;
1471;SDS011;963;42.644;23.336;2023-02-10T13:25:16;30.27;;;20.50;;
1471;SDS011;963;42.644;23.336;2023-02-10T13:36:29;31.57;;;19.17;;
1471;SDS011;963;42.644;23.336;2023-02-10T13:39:03;33.37;;;20.03;;
1471;SDS011;963;42.644;23.336;2023-02-10T13:41:37;31.37;;;21.40;;
1471;SDS011;963;42.644;23.336;2023-02-10T13:44:18;31.30;;;20.87;;
1471;SDS011;963;42.644;23.336;2023-02-10T13:46:54;34.80;;;20.73;;
1471;SDS011;963;42.644;23.336;2023-02-10T13:49:20;27.03;;;20.40;;
1471;SDS011;963;42.644;23.336;2023-02-10T13:51:46;29.80;;;20.50;;
1471;SDS011;963;42.644;23.336;2023-02-10T13:54:31;35.67;;;20.80;;
1471;SDS011;963;42.644;23.336;2023-02-10T13:56:58;34.93;;;20.57;;
1471;SDS011;963;42.644;23.336;2023-02-10T13:59:34;32.40;;;20.87;;
1471;SDS011;963;42.644;23.336;2023-02-10T14:02:15;25.60;;;19.63;;
1471;SDS011;963;42.644;23.336;2023-02-10T14:04:47;28.83;;;19.40;;
1471;SDS011;963;42.644;23.336;2023-02-10T14:12:55;31.03;;;21.13;;
1471;SDS011;963;42.644;23.336;2023-02-10T14:15:28;29.13;;;21.43;;
1471;SDS011;963;42.644;23.336;2023-02-10T14:18:01;33.10;;;21.30;;
1471;SDS011;963;42.644;23.336;2023-02-10T14:20:29;24.70;;;20.80;;
1471;SDS011;963;42.644;23.336;2023-02-10T14:22:57;33.57;;;22.07;;
1471;SDS011;963;42.644;23.336;2023-02-10T14:25:32;29.53;;;22.23;;
1471;SDS011;963;42.644;23.336;2023-02-10T14:28:01;29.20;;;21.73;;
1471;SDS011;963;42.644;23.336;2023-02-10T14:30:39;31.63;;;22.20;;
1471;SDS011;963;42.644;23.336;2023-02-10T14:36:07;36.33;;;21.63;;
1471;SDS011;963;42.644;23.336;2023-02-10T14:38:44;29.63;;;22.23;;
1471;SDS011;963;42.644;23.336;2023-02-10T14:41:15;29.80;;;22.33;;
1471;SDS011;963;42.644;23.336;2023-02-10T14:43:41;34.63;;;25.30;;
1471;SDS011;963;42.644;23.336;2023-02-10T14:46:07;35.90;;;26.60;;
1471;SDS011;963;42.644;23.336;2023-02-10T14:48:42;36.03;;;25.93;;
1471;SDS011;963;42.644;23.336;2023-02-10T14:51:17;38.83;;;27.40;;
1471;SDS011;963;42.644;23.336;2023-02-10T14:53:45;39.10;;;25.93;;
1471;SDS011;963;42.644;23.336;2023-02-10T14:56:15;41.80;;;27.10;;
1471;SDS011;963;42.644;23.336;2023-02-10T14:58:44;46.27;;;26.70;;
1471;SDS011;963;42.644;23.336;2023-02-10T15:01:13;42.43;;;25.67;;
1471;SDS011;963;42.644;23.336;2023-02-10T15:03:39;38.07;;;25.70;;
1471;SDS011;963;42.644;23.336;2023-02-10T15:06:05;41.87;;;24.90;;
1471;SDS011;963;42.644;23.336;2023-02-10T15:11:15;45.80;;;26.80;;
1471;SDS011;963;42.644;23.336;2023-02-10T15:14:04;42.17;;;26.40;;
1471;SDS011;963;42.644;23.336;2023-02-10T15:16:34;47.00;;;26.90;;
1471;SDS011;963;42.644;23.336;2023-02-10T15:18:59;48.30;;;26.27;;
1471;SDS011;963;42.644;23.336;2023-02-10T15:21:33;40.50;;;24.60;;
1471;SDS011;963;42.644;23.336;2023-02-10T15:24:00;51.50;;;27.03;;
1471;SDS011;963;42.644;23.336;2023-02-10T15:26:28;41.00;;;24.33;;
1471;SDS011;963;42.644;23.336;2023-02-10T15:31:33;39.50;;;22.27;;
1471;SDS011;963;42.644;23.336;2023-02-10T15:33:59;39.40;;;21.37;;
1471;SDS011;963;42.644;23.336;2023-02-10T15:39:01;35.37;;;20.00;;
1471;SDS011;963;42.644;23.336;2023-02-10T15:41:57;30.33;;;19.03;;
1471;SDS011;963;42.644;23.336;2023-02-10T15:44:43;33.47;;;18.60;;
1471;SDS011;963;42.644;23.336;2023-02-10T15:49:42;37.00;;;20.33;;
1471;SDS011;963;42.644;23.336;2023-02-10T15:52:10;37.63;;;20.60;;
1471;SDS011;963;42.644;23.336;2023-02-10T15:54:38;38.07;;;21.27;;
1471;SDS011;963;42.644;23.336;2023-02-10T15:57:05;36.57;;;21.37;;
1471;SDS011;963;42.644;23.336;2023-02-10T15:59:31;38.43;;;21.37;;
1471;SDS011;963;42.644;23.336;2023-02-10T16:01:58;40.50;;;22.33;;
1471;SDS011;963;42.644;23.336;2023-02-10T16:04:28;37.80;;;20.92;;
1471;SDS011;963;42.644;23.336;2023-02-10T16:06:58;36.97;;;20.13;;
1471;SDS011;963;42.644;23.336;2023-02-10T16:09:24;33.65;;;21.20;;
1471;SDS011;963;42.644;23.336;2023-02-10T16:11:49;33.57;;;20.03;;
1471;SDS011;963;42.644;23.336;2023-02-10T16:14:15;42.37;;;20.20;;
1471;SDS011;963;42.644;23.336;2023-02-10T16:16:42;40.87;;;20.90;;
1471;SDS011;963;42.644;23.336;2023-02-10T16:19:10;37.22;;;22.33;;
1471;SDS011;963;42.644;23.336;2023-02-10T16:21:38;41.27;;;21.80;;
1471;SDS011;963;42.644;23.336;2023-02-10T16:24:04;40.63;;;21.63;;
1471;SDS011;963;42.644;23.336;2023-02-10T16:26:29;35.27;;;21.50;;
1471;SDS011;963;42.644;23.336;2023-02-10T16:28:55;47.13;;;26.40;;
1471;SDS011;963;42.644;23.336;2023-02-10T16:31:21;45.20;;;24.60;;
1471;SDS011;963;42.644;23.336;2023-02-10T16:33:47;42.10;;;25.10;;
1471;SDS011;963;42.644;23.336;2023-02-10T16:36:14;45.30;;;25.33;;
1471;SDS011;963;42.644;23.336;2023-02-10T16:38:41;37.08;;;23.70;;
1471;SDS011;963;42.644;23.336;2023-02-10T16:41:07;48.20;;;23.70;;
1471;SDS011;963;42.644;23.336;2023-02-10T16:43:33;46.22;;;23.38;;
1471;SDS011;963;42.644;23.336;2023-02-10T16:45:58;41.83;;;21.30;;
1471;SDS011;963;42.644;23.336;2023-02-10T16:48:24;40.33;;;20.10;;
1471;SDS011;963;42.644;23.336;2023-02-10T16:50:49;48.73;;;21.73;;
1471;SDS011;963;42.644;23.336;2023-02-10T16:53:14;37.77;;;22.10;;
1471;SDS011;963;42.644;23.336;2023-02-10T16:55:40;34.83;;;19.60;;
1471;SDS011;963;42.644;23.336;2023-02-10T16:58:07;61.50;;;28.83;;
1471;SDS011;963;42.644;23.336;2023-02-10T17:00:36;36.30;;;20.10;;
1471;SDS011;963;42.644;23.336;2023-02-10T17:03:02;40.90;;;20.47;;
1471;SDS011;963;42.644;23.336;2023-02-10T17:05:27;33.57;;;19.43;;
1471;SDS011;963;42.644;23.336;2023-02-10T17:07:54;29.98;;;19.85;;
1471;SDS011;963;42.644;23.336;2023-02-10T17:10:21;43.23;;;18.60;;
1471;SDS011;963;42.644;23.336;2023-02-10T17:12:52;28.90;;;17.63;;
1471;SDS011;963;42.644;23.336;2023-02-10T17:15:18;45.50;;;20.27;;
1471;SDS011;963;42.644;23.336;2023-02-10T17:17:44;36.10;;;18.42;;
1471;SDS011;963;42.644;23.336;2023-02-10T17:20:29;33.33;;;19.00;;
1471;SDS011;963;42.644;23.336;2023-02-10T17:22:58;28.58;;;17.80;;
1471;SDS011;963;42.644;23.336;2023-02-10T17:25:24;38.17;;;18.40;;